Nearby METAR Reports

 

ENCN - Kristiansand/Kje, Norway
Distance from station: N 17km
Opdateer: 06/02/2023 01:33
unable to load ENCN data RC=
unable to load ENCN data RC=
 
EKSN - Sindal Airport, Denmark
Distance from station: OSO 145km
Opdateer: 06/02/2023 01:33
unable to load EKSN data RC=
unable to load EKSN data RC=
 
 
EKYT - Alborg, Denmark
Distance from station: SO 153km
Opdateer: 06/02/2023 01:30
Freezing fog, Few clouds
Freezing fog, Few clouds
 Wind van SW
Wind: SW 7 km/h
Temperatuur: -2°C
Wind Chill: -6°C
Doupunt: -2°C
Humiditeit: 100%
Druk: 1039 hPa
Obsomming: Freezing Fog
Clouds: Few Clouds
Visibility: 1 km
Cloud details: Few Clouds 5182 m
2023/02/06 00:30 EKYT 060030Z AUTO 23004KT 0650 R08L/P1500N R26R/0750D FZFG FEW170/// M02/M02 Q1039
ENSN - Skien/Geiterygge, Norway
Distance from station: NO 153km
Opdateer: 09/11/2015 09:50
NOT Current
Helder
Helder
 Wind van SSW
Wind: SSW 19 km/h, Windvlaag: 41 km/h
Temperatuur: 7°C
Wind Chill: 4°C
Doupunt: 3°C
Humiditeit: 76%
Druk: 1000 hPa
Obsomming: Helder
Visibility: greater than 10 km
2015/11/09 08:50 ENSN 090850Z 20010G22KT 150V240 CAVOK 07/03 Q1000
 
ENZV - Stavanger/Sola(A, Norway
Distance from station: NW 166km
Opdateer: 06/02/2023 01:20
Meestal bewolk
Meestal bewolk
 Wind van SSW
Wind: SSW 11 km/h
Temperatuur: 5°C
Wind Chill: 2°C
Doupunt: 4°C
Humiditeit: 93%
Druk: 1039 hPa
Clouds: Meestal bewolk
Visibility: 9 km
Cloud details: Gedeeltelik bewolk 244 m
Meestal bewolk 366 m
Meestal bewolk 3658 m
2023/02/06 00:20 ENZV 060020Z 20006KT 9000 SCT008 BKN012 BKN120 05/04 Q1039
ENNO - Notodden, Norway
Distance from station: NNO 182km
Opdateer: 05/02/2023 16:20
NOT Current
Helder
Helder
 Wind van calm
Wind: Kalm
Temperatuur: -3°C
Doupunt: -4°C
Humiditeit: 93%
Druk: 1036 hPa
Obsomming: Helder
Visibility: greater than 10 km
2023/02/05 15:20 ENNO 051520Z 00000KT CAVOK M03/M04 Q1036
 
ENTO - Torp (civ/Nor-Af, Norway
Distance from station: NO 183km
Opdateer: 06/02/2023 01:20
Toegetrek
Toegetrek
 Wind van varies
Wind: varies 6 km/h
Temperatuur: -2°C
Doupunt: -3°C
Humiditeit: 93%
Druk: 1038 hPa
Clouds: Toegetrek
Visibility: 10 km
Cloud details: Toegetrek 4267 m
2023/02/06 00:20 ENTO 060020Z AUTO VRB03KT 9999 OVC140/// M02/M03 Q1038
EKKA - Karup (dan-Afb), Denmark
Distance from station: SSO 209km
Opdateer: 06/02/2023 01:33
Meestal bewolk
Meestal bewolk
 Wind van WSW
Wind: WSW 6 km/h
Temperatuur: 0°C
Doupunt: 0°C
Humiditeit: 100%
Druk: 1039 hPa
Clouds: Meestal bewolk
Visibility: 10 km
Cloud details: Meestal bewolk 5486 m
2023/02/06 00:33 EKKA 060033Z AUTO 24003KT 9999 BKN180/// 00/00 Q1039
 
ENHD - Haugesund/Karmoy, Norway
Distance from station: NW 216km
Opdateer: 06/02/2023 01:20
Toegetrek
Toegetrek
 Wind van SO
Wind: SO 17 km/h
Temperatuur: 4°C
Wind Chill: 0°C
Doupunt: 4°C
Humiditeit: 100%
Druk: 1038 hPa
Clouds: Toegetrek
Visibility: 7 km
Cloud details: Gedeeltelik bewolk 244 m
Toegetrek 3658 m
2023/02/06 00:20 ENHD 060020Z AUTO 14009KT 7000 SCT008/// OVC120/// 04/04 Q1038
ENRY - Rygge (nor-Afb), Norway
Distance from station: NO 216km
Opdateer: 06/02/2023 01:20
Toegetrek
Toegetrek
 Wind van varies
Wind: varies 4 km/h
Temperatuur: -4°C
Doupunt: -4°C
Humiditeit: 100%
Druk: 1038 hPa
Clouds: Toegetrek
Visibility: 10 km
Cloud details: Toegetrek 30 m
2023/02/06 00:20 ENRY 060020Z AUTO VRB02KT 9999NDV VV001 M04/M04 Q1038
 
ESGP - Goteborg/Save (a, Sweden
Distance from station: O 230km
Opdateer: 06/02/2023 01:20
Freezing fog, Toegetrek
Freezing fog, Toegetrek
 Wind van calm
Wind: Kalm
Temperatuur: -1°C
Doupunt: -2°C
Humiditeit: 93%
Druk: 1039 hPa
Obsomming: Freezing Fog
Clouds: Toegetrek
Visibility: 0 km
Cloud details: Toegetrek 30 m
2023/02/06 00:20 ESGP 060020Z AUTO 00000KT 0150 R01/0500N R19/0550N FZFG OVC001/// M01/M02 Q1039
EKVJ - Stauning Airport, Denmark
Distance from station: S 233km
Opdateer: 03/02/2023 13:50
NOT Current
Meestal bewolk
Meestal bewolk
 Wind van WNW
Wind: WNW 33 km/h
Temperatuur: 7°C
Wind Chill: 3°C
Doupunt: 5°C
Humiditeit: 87%
Druk: 1010 hPa
Clouds: Meestal bewolk
Visibility: 7 km
Cloud details: Gedeeltelik bewolk 610 m
Meestal bewolk 914 m
2023/02/03 12:50 EKVJ 031250Z 29018KT 7000 SCT020 BKN030 07/05 Q1010
 
ENSO - Stord/Soerstokke, Norway
Distance from station: NW 246km
Opdateer: 05/02/2023 19:50
NOT Current
Meestal bewolk
Meestal bewolk
 Wind van SW
Wind: SW 11 km/h
Temperatuur: 6°C
Wind Chill: 4°C
Doupunt: 6°C
Humiditeit: 100%
Druk: 1039 hPa
Clouds: Meestal bewolk
Visibility: 10 km
Cloud details: Few Clouds 366 m
Gedeeltelik bewolk 549 m
Meestal bewolk 2134 m
2023/02/05 18:50 ENSO 051850Z 23006KT 9999 FEW012 SCT018 BKN070 06/06 Q1039
EKAH - Tirstrup (civ/Mi, Denmark
Distance from station: SO 252km
Opdateer: 06/02/2023 01:20
Gedeeltelik bewolk
Gedeeltelik bewolk
 Wind van W
Wind: W 4 km/h
Temperatuur: -2°C
Doupunt: -2°C
Humiditeit: 100%
Druk: 1040 hPa
Clouds: Gedeeltelik bewolk
Visibility: 10 km
Cloud details: Gedeeltelik bewolk 5486 m
2023/02/06 00:20 EKAH 060020Z AUTO 28002KT 9999 SCT180/// M02/M02 Q1040
 
ESGT - Trollhattan (pvt, Sweden
Distance from station: O 255km
Opdateer: 06/02/2023 01:20
Freezing fog, Toegetrek
Freezing fog, Toegetrek
 Wind van varies
Wind: varies 4 km/h
Temperatuur: -3°C
Doupunt: -4°C
Humiditeit: 93%
Druk: 1039 hPa
Obsomming: Freezing Fog
Clouds: Toegetrek
Visibility: 0 km
Cloud details: Toegetrek 61 m
2023/02/06 00:20 ESGT 060020Z AUTO VRB02KT 0100 R15///// R33///// FZFG VV002 M03/M04 Q1039
ESGG - Goteborg/Landvet, Sweden
Distance from station: O 257km
Opdateer: 06/02/2023 01:20
Freezing fog, Toegetrek
Freezing fog, Toegetrek
 Wind van NNO
Wind: NNO 6 km/h
Temperatuur: -3°C
Doupunt: -3°C
Humiditeit: 100%
Druk: 1038 hPa
Obsomming: Freezing Fog
Clouds: Toegetrek
Visibility: 0 km
Cloud details: Toegetrek 30 m
2023/02/06 00:20 ESGG 060020Z 02003KT 0100 R03/0450N R21/0450N FZFG VV001 M03/M03 Q1038
 
EKBI - Billund Airport, Denmark
Distance from station: SSO 269km
Opdateer: 06/02/2023 01:20
Meestal bewolk
Meestal bewolk
 Wind van SSW
Wind: SSW 2 km/h
Temperatuur: -2°C
Doupunt: -2°C
Humiditeit: 100%
Druk: 1040 hPa
Clouds: Meestal bewolk
Visibility: 10 km
Cloud details: Gedeeltelik bewolk 3962 m
Gedeeltelik bewolk 5791 m
Meestal bewolk 6401 m
2023/02/06 00:20 EKBI 060020Z AUTO 20001KT 9999 SCT130/// SCT190/// BKN210/// M02/M02 Q1040
EKHN - Horns Rev B Heli, Denmark
Distance from station: S 274km
Opdateer: 09/08/2016 14:20
NOT Current
Few Clouds
Few Clouds
 Wind van WNW
Wind: WNW 50 km/h, Windvlaag: 72 km/h
Temperatuur: 14°C
Doupunt: 10°C
Humiditeit: 77%
Druk: 1018 hPa
Clouds: Few Clouds
Visibility: 10 km
Cloud details: Few Clouds 1158 m
Few Clouds 2438 m
2016/08/09 12:20 EKHN 091220Z AUTO 29027G39KT 270V340 9999NDV FEW038/// FEW080/// 14/10 Q1018
 
ESIB - Satenas (swe-Afb, Sweden
Distance from station: O 277km
Opdateer: 06/02/2023 01:20

 Wind van SW
Wind: SW 4 km/h
Visibility: 0 km
2023/02/06 00:20 ESIB 060020Z AUTO 23002KT 0150 0100// R01/0500V0700N R19/0450N FZFG VV003 M04/M04 Q1038
EKHR - Horns Rev B Heli, Denmark
Distance from station: S 282km
Opdateer: 04/10/2016 06:20
NOT Current
Helder
Helder
 Wind van O
Wind: O 4 km/h
Temperatuur: 11°C
Doupunt: -49°C
Humiditeit: 0%
Druk: 1038 hPa
Clouds: Helder
Visibility: 10 km
2016/10/04 04:20 EKHR 040420Z AUTO 08002KT 9999NDV NCD 11/M49 Q1038